sensor_id;sensor_type;location;lat;lon;timestamp;temperature;humidity
17215;DHT22;8723;51.502;6.918;2023-12-20T00:00:20;8.00;99.90
17215;DHT22;8723;51.502;6.918;2023-12-20T00:02:48;8.00;99.90
17215;DHT22;8723;51.502;6.918;2023-12-20T00:05:17;7.90;99.90
17215;DHT22;8723;51.502;6.918;2023-12-20T00:07:46;8.00;99.90
17215;DHT22;8723;51.502;6.918;2023-12-20T00:10:16;8.00;99.90
17215;DHT22;8723;51.502;6.918;2023-12-20T00:12:43;7.90;99.90
17215;DHT22;8723;51.502;6.918;2023-12-20T00:15:11;8.00;99.90
17215;DHT22;8723;51.502;6.918;2023-12-20T00:17:38;7.90;99.90
17215;DHT22;8723;51.502;6.918;2023-12-20T00:20:06;7.80;99.90
17215;DHT22;8723;51.502;6.918;2023-12-20T00:22:33;7.80;99.90
17215;DHT22;8723;51.502;6.918;2023-12-20T00:25:00;7.80;99.90
17215;DHT22;8723;51.502;6.918;2023-12-20T00:27:27;7.70;99.90
17215;DHT22;8723;51.502;6.918;2023-12-20T00:29:53;7.80;99.90
17215;DHT22;8723;51.502;6.918;2023-12-20T00:32:22;7.80;99.90
17215;DHT22;8723;51.502;6.918;2023-12-20T00:34:51;7.80;99.90
17215;DHT22;8723;51.502;6.918;2023-12-20T00:37:18;7.70;99.90
17215;DHT22;8723;51.502;6.918;2023-12-20T00:39:45;7.70;99.90
17215;DHT22;8723;51.502;6.918;2023-12-20T00:42:12;7.60;99.90
17215;DHT22;8723;51.502;6.918;2023-12-20T00:44:39;7.60;99.90
17215;DHT22;8723;51.502;6.918;2023-12-20T00:47:06;7.60;99.90
17215;DHT22;8723;51.502;6.918;2023-12-20T00:49:34;7.50;99.90
17215;DHT22;8723;51.502;6.918;2023-12-20T00:52:01;7.60;99.90
17215;DHT22;8723;51.502;6.918;2023-12-20T00:54:28;7.50;99.90
17215;DHT22;8723;51.502;6.918;2023-12-20T00:56:56;7.60;99.90
17215;DHT22;8723;51.502;6.918;2023-12-20T00:59:23;7.60;99.90
17215;DHT22;8723;51.502;6.918;2023-12-20T01:01:50;7.60;99.90
17215;DHT22;8723;51.502;6.918;2023-12-20T01:04:17;7.60;99.90
17215;DHT22;8723;51.502;6.918;2023-12-20T01:06:45;7.60;99.90
17215;DHT22;8723;51.502;6.918;2023-12-20T01:09:12;7.60;99.90
17215;DHT22;8723;51.502;6.918;2023-12-20T01:11:40;7.50;99.90
17215;DHT22;8723;51.502;6.918;2023-12-20T01:14:06;7.50;99.90
17215;DHT22;8723;51.502;6.918;2023-12-20T01:16:33;7.50;99.90
17215;DHT22;8723;51.502;6.918;2023-12-20T01:19:00;7.50;99.90
17215;DHT22;8723;51.502;6.918;2023-12-20T01:21:27;7.40;99.90
17215;DHT22;8723;51.502;6.918;2023-12-20T01:23:55;7.50;99.90
17215;DHT22;8723;51.502;6.918;2023-12-20T01:26:22;7.40;99.90
17215;DHT22;8723;51.502;6.918;2023-12-20T01:28:49;7.40;99.90
17215;DHT22;8723;51.502;6.918;2023-12-20T01:31:17;7.40;99.90
17215;DHT22;8723;51.502;6.918;2023-12-20T01:33:46;7.30;99.90
17215;DHT22;8723;51.502;6.918;2023-12-20T01:36:13;7.30;99.90
17215;DHT22;8723;51.502;6.918;2023-12-20T01:38:41;7.30;99.90
17215;DHT22;8723;51.502;6.918;2023-12-20T01:41:09;7.30;99.90
17215;DHT22;8723;51.502;6.918;2023-12-20T01:43:36;7.30;99.90
17215;DHT22;8723;51.502;6.918;2023-12-20T01:46:03;7.30;99.90
17215;DHT22;8723;51.502;6.918;2023-12-20T01:48:30;7.30;99.90
17215;DHT22;8723;51.502;6.918;2023-12-20T01:51:00;7.20;99.90
17215;DHT22;8723;51.502;6.918;2023-12-20T01:53:28;7.10;99.90
17215;DHT22;8723;51.502;6.918;2023-12-20T01:55:56;7.10;99.90
17215;DHT22;8723;51.502;6.918;2023-12-20T01:58:26;7.00;99.90
17215;DHT22;8723;51.502;6.918;2023-12-20T02:00:53;7.00;99.90
17215;DHT22;8723;51.502;6.918;2023-12-20T02:03:21;6.90;99.90
17215;DHT22;8723;51.502;6.918;2023-12-20T02:05:48;6.90;99.90
17215;DHT22;8723;51.502;6.918;2023-12-20T02:08:15;6.90;99.90
17215;DHT22;8723;51.502;6.918;2023-12-20T02:10:42;6.80;99.90
17215;DHT22;8723;51.502;6.918;2023-12-20T02:13:09;6.90;99.90
17215;DHT22;8723;51.502;6.918;2023-12-20T02:15:37;6.90;99.90
17215;DHT22;8723;51.502;6.918;2023-12-20T02:18:07;6.90;99.90
17215;DHT22;8723;51.502;6.918;2023-12-20T02:20:34;7.00;99.90
17215;DHT22;8723;51.502;6.918;2023-12-20T02:23:02;6.90;99.90
17215;DHT22;8723;51.502;6.918;2023-12-20T02:25:29;6.90;99.90
17215;DHT22;8723;51.502;6.918;2023-12-20T02:27:56;7.00;99.90
17215;DHT22;8723;51.502;6.918;2023-12-20T02:30:23;7.00;99.90
17215;DHT22;8723;51.502;6.918;2023-12-20T02:32:50;7.00;99.90
17215;DHT22;8723;51.502;6.918;2023-12-20T02:35:17;7.00;99.90
17215;DHT22;8723;51.502;6.918;2023-12-20T02:37:44;7.00;99.90
17215;DHT22;8723;51.502;6.918;2023-12-20T02:40:13;7.00;99.90
17215;DHT22;8723;51.502;6.918;2023-12-20T02:42:41;7.00;99.90
17215;DHT22;8723;51.502;6.918;2023-12-20T02:45:10;7.00;99.90
17215;DHT22;8723;51.502;6.918;2023-12-20T02:47:39;7.00;99.90
17215;DHT22;8723;51.502;6.918;2023-12-20T02:50:08;7.00;99.90
17215;DHT22;8723;51.502;6.918;2023-12-20T02:52:38;7.00;99.90
17215;DHT22;8723;51.502;6.918;2023-12-20T02:55:14;6.90;99.90
17215;DHT22;8723;51.502;6.918;2023-12-20T02:57:44;6.90;99.90
17215;DHT22;8723;51.502;6.918;2023-12-20T03:00:15;6.90;99.90
17215;DHT22;8723;51.502;6.918;2023-12-20T03:02:46;6.90;99.90
17215;DHT22;8723;51.502;6.918;2023-12-20T03:05:16;6.90;99.90
17215;DHT22;8723;51.502;6.918;2023-12-20T03:07:45;6.90;99.90
17215;DHT22;8723;51.502;6.918;2023-12-20T03:10:16;6.90;99.90
17215;DHT22;8723;51.502;6.918;2023-12-20T03:12:46;7.00;99.90
17215;DHT22;8723;51.502;6.918;2023-12-20T03:15:15;6.90;99.90
17215;DHT22;8723;51.502;6.918;2023-12-20T03:17:45;6.90;99.90
17215;DHT22;8723;51.502;6.918;2023-12-20T03:20:14;6.80;99.90
17215;DHT22;8723;51.502;6.918;2023-12-20T03:22:44;6.80;99.90
17215;DHT22;8723;51.502;6.918;2023-12-20T03:25:17;6.80;99.90
17215;DHT22;8723;51.502;6.918;2023-12-20T03:27:47;6.90;99.90
17215;DHT22;8723;51.502;6.918;2023-12-20T03:30:17;6.90;99.90
17215;DHT22;8723;51.502;6.918;2023-12-20T03:32:48;6.80;99.90
17215;DHT22;8723;51.502;6.918;2023-12-20T03:35:18;6.70;99.90
17215;DHT22;8723;51.502;6.918;2023-12-20T03:37:49;6.70;99.90
17215;DHT22;8723;51.502;6.918;2023-12-20T03:40:21;6.70;99.90
17215;DHT22;8723;51.502;6.918;2023-12-20T03:42:52;6.70;99.90
17215;DHT22;8723;51.502;6.918;2023-12-20T03:45:22;6.60;99.90
17215;DHT22;8723;51.502;6.918;2023-12-20T03:47:53;6.60;99.90
17215;DHT22;8723;51.502;6.918;2023-12-20T03:50:23;6.70;99.90
17215;DHT22;8723;51.502;6.918;2023-12-20T03:52:52;6.70;99.90
17215;DHT22;8723;51.502;6.918;2023-12-20T03:55:24;6.70;99.90
17215;DHT22;8723;51.502;6.918;2023-12-20T03:57:52;6.70;99.90
17215;DHT22;8723;51.502;6.918;2023-12-20T04:00:20;6.70;99.90
17215;DHT22;8723;51.502;6.918;2023-12-20T04:02:48;6.60;99.90
17215;DHT22;8723;51.502;6.918;2023-12-20T04:05:17;6.60;99.90
17215;DHT22;8723;51.502;6.918;2023-12-20T04:07:46;6.60;99.90
17215;DHT22;8723;51.502;6.918;2023-12-20T04:10:16;6.60;99.90
17215;DHT22;8723;51.502;6.918;2023-12-20T04:12:48;6.60;99.90
17215;DHT22;8723;51.502;6.918;2023-12-20T04:15:16;6.60;99.90
17215;DHT22;8723;51.502;6.918;2023-12-20T04:17:43;6.50;99.90
17215;DHT22;8723;51.502;6.918;2023-12-20T04:20:10;6.60;99.90
17215;DHT22;8723;51.502;6.918;2023-12-20T04:22:37;6.60;99.90
17215;DHT22;8723;51.502;6.918;2023-12-20T04:25:05;6.60;99.90
17215;DHT22;8723;51.502;6.918;2023-12-20T04:27:32;6.70;99.90
17215;DHT22;8723;51.502;6.918;2023-12-20T04:30:00;6.60;99.90
17215;DHT22;8723;51.502;6.918;2023-12-20T04:32:27;6.60;99.90
17215;DHT22;8723;51.502;6.918;2023-12-20T04:34:54;6.60;99.90
17215;DHT22;8723;51.502;6.918;2023-12-20T04:37:19;6.60;99.90
17215;DHT22;8723;51.502;6.918;2023-12-20T04:39:46;6.60;99.90
17215;DHT22;8723;51.502;6.918;2023-12-20T04:42:13;6.60;99.90
17215;DHT22;8723;51.502;6.918;2023-12-20T04:44:40;6.60;99.90
17215;DHT22;8723;51.502;6.918;2023-12-20T04:47:10;6.60;99.90
17215;DHT22;8723;51.502;6.918;2023-12-20T04:49:37;6.60;99.90
17215;DHT22;8723;51.502;6.918;2023-12-20T04:52:04;6.60;99.90
17215;DHT22;8723;51.502;6.918;2023-12-20T04:54:32;6.70;99.90
17215;DHT22;8723;51.502;6.918;2023-12-20T04:56:58;6.60;99.90
17215;DHT22;8723;51.502;6.918;2023-12-20T04:59:25;6.70;99.90
17215;DHT22;8723;51.502;6.918;2023-12-20T05:01:52;6.70;99.90
17215;DHT22;8723;51.502;6.918;2023-12-20T05:04:20;6.70;99.90
17215;DHT22;8723;51.502;6.918;2023-12-20T05:06:47;6.70;99.90
17215;DHT22;8723;51.502;6.918;2023-12-20T05:09:15;6.60;99.90
17215;DHT22;8723;51.502;6.918;2023-12-20T05:11:43;6.60;99.90
17215;DHT22;8723;51.502;6.918;2023-12-20T05:14:10;6.60;99.90
17215;DHT22;8723;51.502;6.918;2023-12-20T05:16:36;6.60;99.90
17215;DHT22;8723;51.502;6.918;2023-12-20T05:19:03;6.60;99.90
17215;DHT22;8723;51.502;6.918;2023-12-20T05:21:33;6.60;99.90
17215;DHT22;8723;51.502;6.918;2023-12-20T05:24:01;6.60;99.90
17215;DHT22;8723;51.502;6.918;2023-12-20T05:26:28;6.60;99.90
17215;DHT22;8723;51.502;6.918;2023-12-20T05:28:56;6.60;99.90
17215;DHT22;8723;51.502;6.918;2023-12-20T05:31:22;6.60;99.90
17215;DHT22;8723;51.502;6.918;2023-12-20T05:33:49;6.60;99.90
17215;DHT22;8723;51.502;6.918;2023-12-20T05:36:16;6.60;99.90
17215;DHT22;8723;51.502;6.918;2023-12-20T05:38:44;6.50;99.90
17215;DHT22;8723;51.502;6.918;2023-12-20T05:41:11;6.50;99.90
17215;DHT22;8723;51.502;6.918;2023-12-20T05:43:38;6.50;99.90
17215;DHT22;8723;51.502;6.918;2023-12-20T05:46:05;6.50;99.90
17215;DHT22;8723;51.502;6.918;2023-12-20T05:48:32;6.50;99.90
17215;DHT22;8723;51.502;6.918;2023-12-20T05:50:59;6.40;99.90
17215;DHT22;8723;51.502;6.918;2023-12-20T05:53:26;6.50;99.90
17215;DHT22;8723;51.502;6.918;2023-12-20T05:55:55;6.50;99.90
17215;DHT22;8723;51.502;6.918;2023-12-20T05:58:21;6.50;99.90
17215;DHT22;8723;51.502;6.918;2023-12-20T06:00:48;6.50;99.90
17215;DHT22;8723;51.502;6.918;2023-12-20T06:03:15;6.50;99.90
17215;DHT22;8723;51.502;6.918;2023-12-20T06:05:42;6.50;99.90
17215;DHT22;8723;51.502;6.918;2023-12-20T06:08:09;6.50;99.90
17215;DHT22;8723;51.502;6.918;2023-12-20T06:10:36;6.50;99.90
17215;DHT22;8723;51.502;6.918;2023-12-20T06:13:04;6.50;99.90
17215;DHT22;8723;51.502;6.918;2023-12-20T06:15:32;6.50;99.90
17215;DHT22;8723;51.502;6.918;2023-12-20T06:17:58;6.50;99.90
17215;DHT22;8723;51.502;6.918;2023-12-20T06:20:25;6.50;99.90
17215;DHT22;8723;51.502;6.918;2023-12-20T06:22:52;6.50;99.90
17215;DHT22;8723;51.502;6.918;2023-12-20T06:25:19;6.60;99.90
17215;DHT22;8723;51.502;6.918;2023-12-20T06:27:46;6.60;99.90
17215;DHT22;8723;51.502;6.918;2023-12-20T06:30:16;6.60;99.90
17215;DHT22;8723;51.502;6.918;2023-12-20T06:32:43;6.60;99.90
17215;DHT22;8723;51.502;6.918;2023-12-20T06:35:12;6.60;99.90
17215;DHT22;8723;51.502;6.918;2023-12-20T06:37:39;6.60;99.90
17215;DHT22;8723;51.502;6.918;2023-12-20T06:40:08;6.60;99.90
17215;DHT22;8723;51.502;6.918;2023-12-20T06:42:36;6.60;99.90
17215;DHT22;8723;51.502;6.918;2023-12-20T06:45:04;6.60;99.90
17215;DHT22;8723;51.502;6.918;2023-12-20T06:47:32;6.60;99.90
17215;DHT22;8723;51.502;6.918;2023-12-20T06:49:59;6.60;99.90
17215;DHT22;8723;51.502;6.918;2023-12-20T06:52:26;6.60;99.90
17215;DHT22;8723;51.502;6.918;2023-12-20T06:54:53;6.60;99.90
17215;DHT22;8723;51.502;6.918;2023-12-20T06:57:20;6.60;99.90
17215;DHT22;8723;51.502;6.918;2023-12-20T06:59:47;6.60;99.90
17215;DHT22;8723;51.502;6.918;2023-12-20T07:02:14;6.60;99.90
17215;DHT22;8723;51.502;6.918;2023-12-20T07:04:42;6.60;99.90
17215;DHT22;8723;51.502;6.918;2023-12-20T07:07:09;6.70;99.90
17215;DHT22;8723;51.502;6.918;2023-12-20T07:09:35;6.70;99.90
17215;DHT22;8723;51.502;6.918;2023-12-20T07:12:04;6.70;99.90
17215;DHT22;8723;51.502;6.918;2023-12-20T07:14:30;6.70;99.90
17215;DHT22;8723;51.502;6.918;2023-12-20T07:16:57;6.70;99.90
17215;DHT22;8723;51.502;6.918;2023-12-20T07:19:24;6.80;99.90
17215;DHT22;8723;51.502;6.918;2023-12-20T07:21:52;6.80;99.90
17215;DHT22;8723;51.502;6.918;2023-12-20T07:24:19;6.80;99.90
17215;DHT22;8723;51.502;6.918;2023-12-20T07:26:45;6.80;99.90
17215;DHT22;8723;51.502;6.918;2023-12-20T07:29:12;6.80;99.90
17215;DHT22;8723;51.502;6.918;2023-12-20T07:31:39;6.80;99.90
17215;DHT22;8723;51.502;6.918;2023-12-20T07:34:07;6.80;99.90
17215;DHT22;8723;51.502;6.918;2023-12-20T07:36:33;6.80;99.90
17215;DHT22;8723;51.502;6.918;2023-12-20T07:39:02;6.80;99.90
17215;DHT22;8723;51.502;6.918;2023-12-20T07:41:29;6.80;99.90
17215;DHT22;8723;51.502;6.918;2023-12-20T07:43:56;6.80;99.90
17215;DHT22;8723;51.502;6.918;2023-12-20T07:46:23;6.80;99.90
17215;DHT22;8723;51.502;6.918;2023-12-20T07:48:50;6.90;99.90
17215;DHT22;8723;51.502;6.918;2023-12-20T07:51:17;6.90;99.90
17215;DHT22;8723;51.502;6.918;2023-12-20T07:53:44;6.90;99.90
17215;DHT22;8723;51.502;6.918;2023-12-20T07:56:16;6.90;99.90
17215;DHT22;8723;51.502;6.918;2023-12-20T07:58:43;6.90;99.90
17215;DHT22;8723;51.502;6.918;2023-12-20T08:01:11;7.00;99.90
17215;DHT22;8723;51.502;6.918;2023-12-20T08:03:38;7.00;99.90
17215;DHT22;8723;51.502;6.918;2023-12-20T08:06:05;7.00;99.90
17215;DHT22;8723;51.502;6.918;2023-12-20T08:08:32;7.00;99.90
17215;DHT22;8723;51.502;6.918;2023-12-20T08:10:59;7.00;99.90
17215;DHT22;8723;51.502;6.918;2023-12-20T08:13:28;7.00;99.90
17215;DHT22;8723;51.502;6.918;2023-12-20T08:15:55;7.00;99.90
17215;DHT22;8723;51.502;6.918;2023-12-20T08:18:22;7.00;99.90
17215;DHT22;8723;51.502;6.918;2023-12-20T08:20:49;7.00;99.90
17215;DHT22;8723;51.502;6.918;2023-12-20T08:23:18;7.00;99.90
17215;DHT22;8723;51.502;6.918;2023-12-20T08:25:46;7.00;99.90
17215;DHT22;8723;51.502;6.918;2023-12-20T08:28:13;7.00;99.90
17215;DHT22;8723;51.502;6.918;2023-12-20T08:30:42;7.00;99.90
17215;DHT22;8723;51.502;6.918;2023-12-20T08:33:09;7.00;99.90
17215;DHT22;8723;51.502;6.918;2023-12-20T08:35:38;7.00;99.90
17215;DHT22;8723;51.502;6.918;2023-12-20T08:38:05;7.00;99.90
17215;DHT22;8723;51.502;6.918;2023-12-20T08:40:32;7.10;99.90
17215;DHT22;8723;51.502;6.918;2023-12-20T08:42:59;7.00;99.90
17215;DHT22;8723;51.502;6.918;2023-12-20T08:45:26;7.10;99.90
17215;DHT22;8723;51.502;6.918;2023-12-20T08:47:54;7.00;99.90
17215;DHT22;8723;51.502;6.918;2023-12-20T08:50:21;7.00;99.90
17215;DHT22;8723;51.502;6.918;2023-12-20T08:52:48;7.00;99.90
17215;DHT22;8723;51.502;6.918;2023-12-20T08:55:15;7.10;99.90
17215;DHT22;8723;51.502;6.918;2023-12-20T08:57:43;7.10;99.90
17215;DHT22;8723;51.502;6.918;2023-12-20T09:00:11;7.10;99.90
17215;DHT22;8723;51.502;6.918;2023-12-20T09:02:38;7.10;99.90
17215;DHT22;8723;51.502;6.918;2023-12-20T09:05:07;7.10;99.90
17215;DHT22;8723;51.502;6.918;2023-12-20T09:07:34;7.10;99.90
17215;DHT22;8723;51.502;6.918;2023-12-20T09:10:00;7.10;99.90
17215;DHT22;8723;51.502;6.918;2023-12-20T09:12:28;7.10;99.90
17215;DHT22;8723;51.502;6.918;2023-12-20T09:14:54;7.20;99.90
17215;DHT22;8723;51.502;6.918;2023-12-20T09:17:21;7.10;99.90
17215;DHT22;8723;51.502;6.918;2023-12-20T09:19:49;7.20;99.90
17215;DHT22;8723;51.502;6.918;2023-12-20T09:22:19;7.10;99.90
17215;DHT22;8723;51.502;6.918;2023-12-20T09:24:46;7.20;99.90
17215;DHT22;8723;51.502;6.918;2023-12-20T09:27:13;7.20;99.90
17215;DHT22;8723;51.502;6.918;2023-12-20T09:29:39;7.20;99.90
17215;DHT22;8723;51.502;6.918;2023-12-20T09:32:06;7.10;99.90
17215;DHT22;8723;51.502;6.918;2023-12-20T09:34:33;7.10;99.90
17215;DHT22;8723;51.502;6.918;2023-12-20T09:37:00;7.10;99.90
17215;DHT22;8723;51.502;6.918;2023-12-20T09:39:29;7.10;99.90
17215;DHT22;8723;51.502;6.918;2023-12-20T09:42:01;7.10;99.90
17215;DHT22;8723;51.502;6.918;2023-12-20T09:44:29;7.10;99.90
17215;DHT22;8723;51.502;6.918;2023-12-20T09:46:56;7.10;99.90
17215;DHT22;8723;51.502;6.918;2023-12-20T09:49:23;7.10;99.90
17215;DHT22;8723;51.502;6.918;2023-12-20T09:51:52;7.20;99.90
17215;DHT22;8723;51.502;6.918;2023-12-20T09:54:21;7.20;99.90
17215;DHT22;8723;51.502;6.918;2023-12-20T09:56:49;7.20;99.90
17215;DHT22;8723;51.502;6.918;2023-12-20T09:59:16;7.20;99.90
17215;DHT22;8723;51.502;6.918;2023-12-20T10:01:43;7.20;99.90
17215;DHT22;8723;51.502;6.918;2023-12-20T10:04:12;7.20;99.90
17215;DHT22;8723;51.502;6.918;2023-12-20T10:06:39;7.20;99.90
17215;DHT22;8723;51.502;6.918;2023-12-20T10:09:06;7.20;99.90
17215;DHT22;8723;51.502;6.918;2023-12-20T10:11:35;7.20;99.90
17215;DHT22;8723;51.502;6.918;2023-12-20T10:14:04;7.20;99.90
17215;DHT22;8723;51.502;6.918;2023-12-20T10:16:31;7.20;99.90
17215;DHT22;8723;51.502;6.918;2023-12-20T10:18:59;7.20;99.90
17215;DHT22;8723;51.502;6.918;2023-12-20T10:21:26;7.20;99.90
17215;DHT22;8723;51.502;6.918;2023-12-20T10:23:54;7.20;99.90
17215;DHT22;8723;51.502;6.918;2023-12-20T10:26:21;7.30;99.90
17215;DHT22;8723;51.502;6.918;2023-12-20T10:28:50;7.30;99.90
17215;DHT22;8723;51.502;6.918;2023-12-20T10:31:30;7.30;99.90
17215;DHT22;8723;51.502;6.918;2023-12-20T10:33:58;7.30;99.90
17215;DHT22;8723;51.502;6.918;2023-12-20T10:36:26;7.40;99.90
17215;DHT22;8723;51.502;6.918;2023-12-20T10:38:54;7.40;99.90
17215;DHT22;8723;51.502;6.918;2023-12-20T10:41:25;7.40;99.90
17215;DHT22;8723;51.502;6.918;2023-12-20T10:43:58;7.30;99.90
17215;DHT22;8723;51.502;6.918;2023-12-20T10:46:26;7.30;99.90
17215;DHT22;8723;51.502;6.918;2023-12-20T10:48:56;7.30;99.90
17215;DHT22;8723;51.502;6.918;2023-12-20T10:51:24;7.30;99.90
17215;DHT22;8723;51.502;6.918;2023-12-20T10:53:52;7.40;99.90
17215;DHT22;8723;51.502;6.918;2023-12-20T10:56:20;7.30;99.90
17215;DHT22;8723;51.502;6.918;2023-12-20T10:58:49;7.40;99.90
17215;DHT22;8723;51.502;6.918;2023-12-20T11:01:17;7.30;99.90
17215;DHT22;8723;51.502;6.918;2023-12-20T11:03:49;7.40;99.90
17215;DHT22;8723;51.502;6.918;2023-12-20T11:06:27;7.40;99.90
17215;DHT22;8723;51.502;6.918;2023-12-20T11:09:01;7.40;99.90
17215;DHT22;8723;51.502;6.918;2023-12-20T11:11:39;7.50;99.90
17215;DHT22;8723;51.502;6.918;2023-12-20T11:14:15;7.50;99.90
17215;DHT22;8723;51.502;6.918;2023-12-20T11:16:44;7.50;99.90
17215;DHT22;8723;51.502;6.918;2023-12-20T11:19:11;7.50;99.90
17215;DHT22;8723;51.502;6.918;2023-12-20T11:21:41;7.50;99.90
17215;DHT22;8723;51.502;6.918;2023-12-20T11:24:09;7.50;99.90
17215;DHT22;8723;51.502;6.918;2023-12-20T11:26:36;7.50;99.90
17215;DHT22;8723;51.502;6.918;2023-12-20T11:29:31;7.50;99.90
17215;DHT22;8723;51.502;6.918;2023-12-20T11:31:59;7.60;99.90
17215;DHT22;8723;51.502;6.918;2023-12-20T11:34:27;7.60;99.90
17215;DHT22;8723;51.502;6.918;2023-12-20T11:36:59;7.60;99.90
17215;DHT22;8723;51.502;6.918;2023-12-20T11:39:28;7.50;99.90
17215;DHT22;8723;51.502;6.918;2023-12-20T11:41:57;7.60;99.90
17215;DHT22;8723;51.502;6.918;2023-12-20T11:44:25;7.60;99.90
17215;DHT22;8723;51.502;6.918;2023-12-20T11:46:53;7.60;99.90
17215;DHT22;8723;51.502;6.918;2023-12-20T11:49:23;7.60;99.90
17215;DHT22;8723;51.502;6.918;2023-12-20T11:51:51;7.60;99.90
17215;DHT22;8723;51.502;6.918;2023-12-20T11:54:19;7.60;99.90
17215;DHT22;8723;51.502;6.918;2023-12-20T11:56:46;7.50;99.90
17215;DHT22;8723;51.502;6.918;2023-12-20T11:59:14;7.40;99.90
17215;DHT22;8723;51.502;6.918;2023-12-20T12:01:48;7.30;99.90
17215;DHT22;8723;51.502;6.918;2023-12-20T12:04:16;7.40;99.90
17215;DHT22;8723;51.502;6.918;2023-12-20T12:06:43;7.40;99.90
17215;DHT22;8723;51.502;6.918;2023-12-20T12:09:10;7.40;99.90
17215;DHT22;8723;51.502;6.918;2023-12-20T12:11:40;7.30;99.90
17215;DHT22;8723;51.502;6.918;2023-12-20T12:14:07;7.40;99.90
17215;DHT22;8723;51.502;6.918;2023-12-20T12:16:34;7.40;99.90
17215;DHT22;8723;51.502;6.918;2023-12-20T12:19:01;7.40;99.90
17215;DHT22;8723;51.502;6.918;2023-12-20T12:21:29;7.40;99.90
17215;DHT22;8723;51.502;6.918;2023-12-20T12:24:07;7.50;99.90
17215;DHT22;8723;51.502;6.918;2023-12-20T12:26:33;7.50;99.90
17215;DHT22;8723;51.502;6.918;2023-12-20T12:29:02;7.60;99.90
17215;DHT22;8723;51.502;6.918;2023-12-20T12:31:29;7.50;99.90
17215;DHT22;8723;51.502;6.918;2023-12-20T12:33:56;7.50;99.90
17215;DHT22;8723;51.502;6.918;2023-12-20T12:36:23;7.60;99.90
17215;DHT22;8723;51.502;6.918;2023-12-20T12:38:50;7.60;99.90
17215;DHT22;8723;51.502;6.918;2023-12-20T12:41:17;7.50;99.90
17215;DHT22;8723;51.502;6.918;2023-12-20T12:43:44;7.50;99.90
17215;DHT22;8723;51.502;6.918;2023-12-20T12:46:12;7.50;99.90
17215;DHT22;8723;51.502;6.918;2023-12-20T12:48:39;7.60;99.90
17215;DHT22;8723;51.502;6.918;2023-12-20T12:51:06;7.60;99.90
17215;DHT22;8723;51.502;6.918;2023-12-20T12:53:38;7.60;99.90
17215;DHT22;8723;51.502;6.918;2023-12-20T12:56:05;7.60;99.90
17215;DHT22;8723;51.502;6.918;2023-12-20T12:58:32;7.60;99.90
17215;DHT22;8723;51.502;6.918;2023-12-20T13:00:59;7.60;99.90
17215;DHT22;8723;51.502;6.918;2023-12-20T13:03:27;7.50;99.90
17215;DHT22;8723;51.502;6.918;2023-12-20T13:05:54;7.60;99.90
17215;DHT22;8723;51.502;6.918;2023-12-20T13:08:21;7.60;99.90
17215;DHT22;8723;51.502;6.918;2023-12-20T13:10:48;7.50;99.90
17215;DHT22;8723;51.502;6.918;2023-12-20T13:13:15;7.50;99.90
17215;DHT22;8723;51.502;6.918;2023-12-20T13:15:42;7.50;99.90
17215;DHT22;8723;51.502;6.918;2023-12-20T13:18:13;7.50;99.90
17215;DHT22;8723;51.502;6.918;2023-12-20T13:20:42;7.50;99.90
17215;DHT22;8723;51.502;6.918;2023-12-20T13:23:08;7.50;99.90
17215;DHT22;8723;51.502;6.918;2023-12-20T13:25:35;7.50;99.90
17215;DHT22;8723;51.502;6.918;2023-12-20T13:28:03;7.40;99.90
17215;DHT22;8723;51.502;6.918;2023-12-20T13:30:29;7.50;99.90
17215;DHT22;8723;51.502;6.918;2023-12-20T13:32:56;7.40;99.90
17215;DHT22;8723;51.502;6.918;2023-12-20T13:35:23;7.40;99.90
17215;DHT22;8723;51.502;6.918;2023-12-20T13:37:51;7.40;99.90
17215;DHT22;8723;51.502;6.918;2023-12-20T13:40:19;7.30;99.90
17215;DHT22;8723;51.502;6.918;2023-12-20T13:42:45;7.30;99.90
17215;DHT22;8723;51.502;6.918;2023-12-20T13:45:14;7.30;99.90
17215;DHT22;8723;51.502;6.918;2023-12-20T13:47:40;7.30;99.90
17215;DHT22;8723;51.502;6.918;2023-12-20T13:50:08;7.30;99.90
17215;DHT22;8723;51.502;6.918;2023-12-20T13:52:35;7.30;99.90
17215;DHT22;8723;51.502;6.918;2023-12-20T13:55:04;7.30;99.90
17215;DHT22;8723;51.502;6.918;2023-12-20T13:57:33;7.30;99.90
17215;DHT22;8723;51.502;6.918;2023-12-20T14:00:03;7.30;99.90
17215;DHT22;8723;51.502;6.918;2023-12-20T14:02:30;7.30;99.90
17215;DHT22;8723;51.502;6.918;2023-12-20T14:04:57;7.40;99.90
17215;DHT22;8723;51.502;6.918;2023-12-20T14:07:24;7.40;99.90
17215;DHT22;8723;51.502;6.918;2023-12-20T14:09:51;7.30;99.90
17215;DHT22;8723;51.502;6.918;2023-12-20T14:12:19;7.40;99.90
17215;DHT22;8723;51.502;6.918;2023-12-20T14:14:46;7.40;99.90
17215;DHT22;8723;51.502;6.918;2023-12-20T14:17:13;7.40;99.90
17215;DHT22;8723;51.502;6.918;2023-12-20T14:19:40;7.40;99.90
17215;DHT22;8723;51.502;6.918;2023-12-20T14:22:07;7.40;99.90
17215;DHT22;8723;51.502;6.918;2023-12-20T14:24:35;7.40;99.90
17215;DHT22;8723;51.502;6.918;2023-12-20T14:27:02;7.40;99.90
17215;DHT22;8723;51.502;6.918;2023-12-20T14:29:31;7.40;99.90
17215;DHT22;8723;51.502;6.918;2023-12-20T14:31:58;7.40;99.90
17215;DHT22;8723;51.502;6.918;2023-12-20T14:34:26;7.40;99.90
17215;DHT22;8723;51.502;6.918;2023-12-20T14:36:53;7.40;99.90
17215;DHT22;8723;51.502;6.918;2023-12-20T14:39:20;7.40;99.90
17215;DHT22;8723;51.502;6.918;2023-12-20T14:41:48;7.30;99.90
17215;DHT22;8723;51.502;6.918;2023-12-20T14:44:15;7.40;99.90
17215;DHT22;8723;51.502;6.918;2023-12-20T14:46:44;7.40;99.90
17215;DHT22;8723;51.502;6.918;2023-12-20T14:49:10;7.40;99.90
17215;DHT22;8723;51.502;6.918;2023-12-20T14:51:37;7.40;99.90
17215;DHT22;8723;51.502;6.918;2023-12-20T14:54:04;7.40;99.90
17215;DHT22;8723;51.502;6.918;2023-12-20T14:56:33;7.40;99.90
17215;DHT22;8723;51.502;6.918;2023-12-20T14:59:00;7.40;99.90
17215;DHT22;8723;51.502;6.918;2023-12-20T15:01:27;7.50;99.90
17215;DHT22;8723;51.502;6.918;2023-12-20T15:03:55;7.40;99.90
17215;DHT22;8723;51.502;6.918;2023-12-20T15:06:22;7.40;99.90
17215;DHT22;8723;51.502;6.918;2023-12-20T15:08:51;7.50;99.90
17215;DHT22;8723;51.502;6.918;2023-12-20T15:11:18;7.50;99.90
17215;DHT22;8723;51.502;6.918;2023-12-20T15:13:45;7.50;99.90
17215;DHT22;8723;51.502;6.918;2023-12-20T15:16:13;7.50;99.90
17215;DHT22;8723;51.502;6.918;2023-12-20T15:18:40;7.50;99.90
17215;DHT22;8723;51.502;6.918;2023-12-20T15:21:09;7.60;99.90
17215;DHT22;8723;51.502;6.918;2023-12-20T15:23:36;7.60;99.90
17215;DHT22;8723;51.502;6.918;2023-12-20T15:26:03;7.60;99.90
17215;DHT22;8723;51.502;6.918;2023-12-20T15:28:30;7.50;99.90
17215;DHT22;8723;51.502;6.918;2023-12-20T15:30:57;7.50;99.90
17215;DHT22;8723;51.502;6.918;2023-12-20T15:33:23;7.60;99.90
17215;DHT22;8723;51.502;6.918;2023-12-20T15:35:50;7.60;99.90
17215;DHT22;8723;51.502;6.918;2023-12-20T15:38:19;7.60;99.90
17215;DHT22;8723;51.502;6.918;2023-12-20T15:40:46;7.60;99.90
17215;DHT22;8723;51.502;6.918;2023-12-20T15:43:14;7.60;99.90
17215;DHT22;8723;51.502;6.918;2023-12-20T15:45:41;7.60;99.90
17215;DHT22;8723;51.502;6.918;2023-12-20T15:48:07;7.60;99.90
17215;DHT22;8723;51.502;6.918;2023-12-20T15:50:36;7.60;99.90
17215;DHT22;8723;51.502;6.918;2023-12-20T15:53:04;7.60;99.90
17215;DHT22;8723;51.502;6.918;2023-12-20T15:55:32;7.70;99.90
17215;DHT22;8723;51.502;6.918;2023-12-20T15:57:59;7.60;99.90
17215;DHT22;8723;51.502;6.918;2023-12-20T16:00:26;7.70;99.90
17215;DHT22;8723;51.502;6.918;2023-12-20T16:02:52;7.60;99.90
17215;DHT22;8723;51.502;6.918;2023-12-20T16:05:19;7.60;99.90